Time;durP1;ratioP1;P1;durP2;ratioP2;P2;SDS_P1;SDS_P2;PMS_P1;PMS_P2;Temp;Humidity;BMP_temperature;BMP_pressure;BME280_temperature;BME280_humidity;BME280_pressure;Samples;Min_cycle;Max_cycle;Signal;HPM_P1;HPM_P2
2021/10/31 00:00:52;;;;;;;0.10;0.10;;;;;;;;;;5057729;28;20273;-71
2021/10/31 00:03:19;;;;;;;0.10;0.10;;;;;;;;;;5066768;28;20397;-71
2021/10/31 00:05:45;;;;;;;16.30;15.27;;;;;;;;;;5066534;28;20196;-71
2021/10/31 00:08:11;;;;;;;1.53;1.23;;;;;;;;;;5057430;28;20500;-70
2021/10/31 00:10:38;;;;;;;0.10;0.10;;;;;;;;;;5058578;28;20216;-71
2021/10/31 00:13:04;;;;;;;0.10;0.10;;;;;;;;;;5055449;28;20202;-70
2021/10/31 00:15:31;;;;;;;0.10;0.10;;;;;;;;;;5048651;28;20219;-71
2021/10/31 00:17:58;;;;;;;0.10;0.10;;;;;;;;;;5050417;28;20210;-71
2021/10/31 00:20:25;;;;;;;0.10;0.10;;;;;;;;;;5046032;28;20210;-71
2021/10/31 00:22:51;;;;;;;2.60;2.40;;;;;;;;;;5046392;28;20550;-71
2021/10/31 00:25:17;;;;;;;0.10;0.10;;;;;;;;;;5046219;28;20429;-72
2021/10/31 00:27:43;;;;;;;0.10;0.10;;;;;;;;;;5045935;28;20206;-70
2021/10/31 00:30:10;;;;;;;0.53;0.53;;;;;;;;;;5046108;28;20413;-70
2021/10/31 00:32:37;;;;;;;0.10;0.10;;;;;;;;;;5045777;28;20229;-70
2021/10/31 00:35:04;;;;;;;0.10;0.10;;;;;;;;;;5059343;28;20425;-70
2021/10/31 00:37:31;;;;;;;0.10;0.10;;;;;;;;;;5046106;28;20217;-70
2021/10/31 00:39:57;;;;;;;0.10;0.10;;;;;;;;;;5045917;28;20210;-71
2021/10/31 00:42:23;;;;;;;2.67;1.90;;;;;;;;;;5045515;28;20251;-70
2021/10/31 00:44:49;;;;;;;0.10;0.10;;;;;;;;;;5055643;28;20495;-70
2021/10/31 00:47:16;;;;;;;0.10;0.10;;;;;;;;;;5049921;28;20260;-70
2021/10/31 00:49:42;;;;;;;0.10;0.10;;;;;;;;;;5045998;28;20211;-71
2021/10/31 00:52:10;;;;;;;0.10;0.10;;;;;;;;;;5045742;28;20207;-71
2021/10/31 00:54:36;;;;;;;1.70;1.70;;;;;;;;;;5045317;28;20286;-71
2021/10/31 00:57:04;;;;;;;0.10;0.10;;;;;;;;;;5045394;28;20581;-71
2021/10/31 00:59:31;;;;;;;0.10;0.10;;;;;;;;;;5058882;28;20225;-71
2021/10/31 01:01:59;;;;;;;0.10;0.10;;;;;;;;;;5056337;28;20207;-71
2021/10/31 01:04:26;;;;;;;0.10;0.10;;;;;;;;;;5048284;28;20251;-71
2021/10/31 01:07:06;;;;;;;0.20;0.20;;;;;;;;;;5045246;28;20243;-71
2021/10/31 01:09:36;;;;;;;0.10;0.10;;;;;;;;;;5048399;28;20204;-71
2021/10/31 01:12:09;;;;;;;0.10;0.10;;;;;;;;;;5055647;28;20203;-71
2021/10/31 01:14:40;;;;;;;4.43;4.23;;;;;;;;;;5047751;28;20560;-70
2021/10/31 01:17:12;;;;;;;0.10;0.10;;;;;;;;;;5055784;28;20213;-70
2021/10/31 01:19:57;;;;;;;0.10;0.10;;;;;;;;;;5045300;28;20227;-70
2021/10/31 01:22:30;;;;;;;1.23;1.23;;;;;;;;;;5045249;28;20204;-70
2021/10/31 01:25:03;;;;;;;0.10;0.10;;;;;;;;;;5059399;28;20207;-71
2021/10/31 01:27:34;;;;;;;0.10;0.10;;;;;;;;;;5058218;28;20497;-71
2021/10/31 01:30:07;;;;;;;0.13;0.13;;;;;;;;;;5045081;28;20383;-71
2021/10/31 01:32:49;;;;;;;1.50;1.40;;;;;;;;;;5045411;28;20236;-70
2021/10/31 01:35:20;;;;;;;0.10;0.10;;;;;;;;;;5045112;28;20280;-69
2021/10/31 01:37:51;;;;;;;0.20;0.20;;;;;;;;;;5045132;28;20563;-70
2021/10/31 01:40:21;;;;;;;0.13;0.13;;;;;;;;;;5045184;28;20269;-70
2021/10/31 01:42:54;;;;;;;0.10;0.10;;;;;;;;;;5045274;28;20212;-71
2021/10/31 01:45:22;;;;;;;0.10;0.10;;;;;;;;;;5058903;28;20200;-70
2021/10/31 01:47:50;;;;;;;0.90;0.90;;;;;;;;;;5045020;28;20394;-71
2021/10/31 01:50:20;;;;;;;0.10;0.10;;;;;;;;;;5044627;28;20211;-69
2021/10/31 01:52:49;;;;;;;0.10;0.10;;;;;;;;;;5044474;28;20526;-70
2021/10/31 01:55:19;;;;;;;0.10;0.10;;;;;;;;;;5049515;28;20224;-71
2021/10/31 01:57:48;;;;;;;0.10;0.10;;;;;;;;;;5044680;28;20203;-70
2021/10/31 02:00:16;;;;;;;1.50;1.50;;;;;;;;;;5044587;28;20213;-71
2021/10/31 02:02:43;;;;;;;0.10;0.10;;;;;;;;;;5044657;28;20247;-70
2021/10/31 02:05:11;;;;;;;0.10;0.10;;;;;;;;;;5047775;28;20506;-71
2021/10/31 02:07:39;;;;;;;0.10;0.10;;;;;;;;;;5044457;28;20201;-70
2021/10/31 02:10:06;;;;;;;0.10;0.10;;;;;;;;;;5043952;28;20251;-71
2021/10/31 02:12:34;;;;;;;0.10;0.10;;;;;;;;;;5043951;28;20208;-70
2021/10/31 02:15:02;;;;;;;0.10;0.10;;;;;;;;;;5051359;28;20222;-71
2021/10/31 02:17:29;;;;;;;0.10;0.10;;;;;;;;;;5049938;28;20232;-71
2021/10/31 02:19:55;;;;;;;0.10;0.10;;;;;;;;;;5049914;28;20230;-71
2021/10/31 02:22:25;;;;;;;0.10;0.10;;;;;;;;;;5051946;28;20204;-71
2021/10/31 02:24:53;;;;;;;0.13;0.13;;;;;;;;;;5043918;28;20200;-71
2021/10/31 02:27:20;;;;;;;0.10;0.10;;;;;;;;;;5043926;28;20226;-70
2021/10/31 02:29:50;;;;;;;0.10;0.10;;;;;;;;;;5043943;28;20243;-71
2021/10/31 02:32:17;;;;;;;1.70;1.70;;;;;;;;;;5043828;28;20527;-70
2021/10/31 02:34:43;;;;;;;0.10;0.10;;;;;;;;;;5044723;28;20205;-71
2021/10/31 02:37:12;;;;;;;0.23;0.23;;;;;;;;;;5056481;28;20287;-71
2021/10/31 02:39:39;;;;;;;0.10;0.10;;;;;;;;;;5043768;28;20263;-70
2021/10/31 02:42:07;;;;;;;0.10;0.10;;;;;;;;;;5043634;28;20537;-71
2021/10/31 02:44:33;;;;;;;0.10;0.10;;;;;;;;;;5045099;28;20273;-70
2021/10/31 02:47:00;;;;;;;0.10;0.10;;;;;;;;;;5043610;28;20339;-71
2021/10/31 02:49:27;;;;;;;0.10;0.10;;;;;;;;;;5053840;28;20207;-71
2021/10/31 02:51:56;;;;;;;0.10;0.10;;;;;;;;;;5049494;28;20275;-70
2021/10/31 02:54:27;;;;;;;0.10;0.10;;;;;;;;;;5054208;28;20462;-71
2021/10/31 02:56:59;;;;;;;0.10;0.10;;;;;;;;;;5043353;28;20228;-70
2021/10/31 02:59:30;;;;;;;0.10;0.10;;;;;;;;;;5052027;28;20262;-70
2021/10/31 03:01:57;;;;;;;0.10;0.10;;;;;;;;;;5061932;28;20253;-71
2021/10/31 03:04:26;;;;;;;5.73;5.30;;;;;;;;;;5043046;28;20208;-72
2021/10/31 03:06:52;;;;;;;0.10;0.10;;;;;;;;;;5043352;28;20209;-72
2021/10/31 03:09:18;;;;;;;0.10;0.10;;;;;;;;;;5043166;28;20215;-71
2021/10/31 03:11:44;;;;;;;0.10;0.10;;;;;;;;;;5043276;28;20208;-70
2021/10/31 03:14:11;;;;;;;0.10;0.10;;;;;;;;;;5042706;28;20220;-71
2021/10/31 03:16:38;;;;;;;0.10;0.10;;;;;;;;;;5042969;28;20602;-71
2021/10/31 03:19:04;;;;;;;0.10;0.10;;;;;;;;;;5044506;28;20233;-72
2021/10/31 03:21:31;;;;;;;0.10;0.10;;;;;;;;;;5063037;28;20206;-70
2021/10/31 03:23:57;;;;;;;0.10;0.10;;;;;;;;;;5049281;28;20204;-71
2021/10/31 03:26:23;;;;;;;0.10;0.10;;;;;;;;;;5057182;28;20205;-71
2021/10/31 03:28:49;;;;;;;0.10;0.10;;;;;;;;;;5042653;28;20224;-71
2021/10/31 03:31:16;;;;;;;0.57;0.57;;;;;;;;;;5042986;28;20274;-71
2021/10/31 03:33:43;;;;;;;0.10;0.10;;;;;;;;;;5050917;28;20431;-72
2021/10/31 03:36:10;;;;;;;0.10;0.10;;;;;;;;;;5048793;28;20550;-71
2021/10/31 03:38:36;;;;;;;0.53;0.53;;;;;;;;;;5054856;28;20227;-70
2021/10/31 03:41:02;;;;;;;0.10;0.10;;;;;;;;;;5043013;28;20424;-70
2021/10/31 03:43:28;;;;;;;0.10;0.10;;;;;;;;;;5056495;28;20213;-70
2021/10/31 03:45:55;;;;;;;0.10;0.10;;;;;;;;;;5055259;28;20401;-71
2021/10/31 03:48:21;;;;;;;0.20;0.20;;;;;;;;;;5044155;28;20215;-70
2021/10/31 03:50:48;;;;;;;0.20;0.20;;;;;;;;;;5042908;28;20268;-70
2021/10/31 03:53:14;;;;;;;0.10;0.10;;;;;;;;;;5042522;28;20212;-70
2021/10/31 03:55:41;;;;;;;0.97;0.97;;;;;;;;;;5042981;28;20255;-70
2021/10/31 03:58:07;;;;;;;0.30;0.30;;;;;;;;;;5056695;28;20273;-70
2021/10/31 04:00:34;;;;;;;0.17;0.17;;;;;;;;;;5049703;28;20208;-70
2021/10/31 04:03:00;;;;;;;0.10;0.10;;;;;;;;;;5049764;28;20211;-71
2021/10/31 04:05:27;;;;;;;0.30;0.30;;;;;;;;;;5042805;28;20207;-71
2021/10/31 04:07:54;;;;;;;0.10;0.10;;;;;;;;;;5043017;28;20204;-72
2021/10/31 04:10:21;;;;;;;0.10;0.10;;;;;;;;;;5042347;28;20208;-70
2021/10/31 04:12:50;;;;;;;0.10;0.10;;;;;;;;;;5061939;28;20246;-71
2021/10/31 04:15:17;;;;;;;0.10;0.10;;;;;;;;;;5050173;28;20289;-71
2021/10/31 04:17:43;;;;;;;0.10;0.10;;;;;;;;;;5042522;28;20229;-71
2021/10/31 04:20:10;;;;;;;0.67;0.67;;;;;;;;;;5042675;28;20242;-72
2021/10/31 04:22:37;;;;;;;0.10;0.10;;;;;;;;;;5045008;28;20205;-71
2021/10/31 04:25:04;;;;;;;0.10;0.10;;;;;;;;;;5053729;28;20206;-70
2021/10/31 04:27:31;;;;;;;0.10;0.10;;;;;;;;;;5043361;28;20270;-70
2021/10/31 04:29:57;;;;;;;0.10;0.10;;;;;;;;;;5055530;28;20224;-70
2021/10/31 04:32:24;;;;;;;0.10;0.10;;;;;;;;;;5042472;28;20279;-71
2021/10/31 04:34:50;;;;;;;0.10;0.10;;;;;;;;;;5062780;28;20556;-70
2021/10/31 04:37:17;;;;;;;0.10;0.10;;;;;;;;;;5054882;28;20444;-70
2021/10/31 04:39:45;;;;;;;0.10;0.10;;;;;;;;;;5045702;28;20216;-71
2021/10/31 04:42:12;;;;;;;0.10;0.10;;;;;;;;;;5055726;28;20203;-71
2021/10/31 04:44:39;;;;;;;0.10;0.10;;;;;;;;;;5065975;28;20240;-71
2021/10/31 04:47:08;;;;;;;0.10;0.10;;;;;;;;;;5058081;28;20315;-71
2021/10/31 04:49:35;;;;;;;0.10;0.10;;;;;;;;;;5045837;28;20348;-69
2021/10/31 04:52:01;;;;;;;0.10;0.10;;;;;;;;;;5045886;28;20408;-69
2021/10/31 04:54:28;;;;;;;0.10;0.10;;;;;;;;;;5045481;28;20204;-71
2021/10/31 04:56:54;;;;;;;0.10;0.10;;;;;;;;;;5049974;28;20223;-70
2021/10/31 04:59:22;;;;;;;0.10;0.10;;;;;;;;;;5054507;28;20205;-70
2021/10/31 05:01:49;;;;;;;0.10;0.10;;;;;;;;;;5062308;28;20243;-70
2021/10/31 05:04:16;;;;;;;0.53;0.53;;;;;;;;;;5055785;28;20550;-70
2021/10/31 05:06:42;;;;;;;0.10;0.10;;;;;;;;;;5045244;28;20516;-71
2021/10/31 05:09:08;;;;;;;0.10;0.10;;;;;;;;;;5049004;28;20380;-71
2021/10/31 05:11:34;;;;;;;0.10;0.10;;;;;;;;;;5055514;28;20208;-70
2021/10/31 05:14:01;;;;;;;0.10;0.10;;;;;;;;;;5045009;28;20219;-70
2021/10/31 05:16:28;;;;;;;0.10;0.10;;;;;;;;;;5045188;28;20205;-71
2021/10/31 05:18:55;;;;;;;0.10;0.10;;;;;;;;;;5058961;28;20256;-70
2021/10/31 05:21:21;;;;;;;0.10;0.10;;;;;;;;;;5059063;28;20208;-71
2021/10/31 05:23:48;;;;;;;0.10;0.10;;;;;;;;;;5045320;28;20428;-71
2021/10/31 05:26:14;;;;;;;0.83;0.83;;;;;;;;;;5058779;28;20258;-71
2021/10/31 05:28:40;;;;;;;0.10;0.10;;;;;;;;;;5045160;28;20205;-71
2021/10/31 05:31:06;;;;;;;0.10;0.10;;;;;;;;;;5044435;28;20234;-71
2021/10/31 05:33:34;;;;;;;0.10;0.10;;;;;;;;;;5045174;28;20495;-71
2021/10/31 05:36:01;;;;;;;0.10;0.10;;;;;;;;;;5044858;28;20450;-69
2021/10/31 05:38:27;;;;;;;0.10;0.10;;;;;;;;;;5051645;28;20246;-71
2021/10/31 05:40:53;;;;;;;0.10;0.10;;;;;;;;;;5051799;28;20205;-70
2021/10/31 05:43:19;;;;;;;0.40;0.40;;;;;;;;;;5063403;28;20274;-71
2021/10/31 05:45:46;;;;;;;0.10;0.10;;;;;;;;;;5064386;28;20210;-71
2021/10/31 05:48:13;;;;;;;0.40;0.40;;;;;;;;;;5047585;28;20251;-71
2021/10/31 05:50:41;;;;;;;0.10;0.10;;;;;;;;;;5045330;28;20534;-70
2021/10/31 05:53:07;;;;;;;1.80;1.80;;;;;;;;;;5058694;28;20283;-69
2021/10/31 05:55:33;;;;;;;0.20;0.20;;;;;;;;;;5044749;28;20440;-70
2021/10/31 05:58:00;;;;;;;0.10;0.10;;;;;;;;;;5044227;28;20225;-70
2021/10/31 06:00:26;;;;;;;2.00;2.00;;;;;;;;;;5044403;28;20461;-71
2021/10/31 06:02:52;;;;;;;0.10;0.10;;;;;;;;;;5044202;28;20246;-70
2021/10/31 06:05:18;;;;;;;0.10;0.10;;;;;;;;;;5044211;28;20235;-70
2021/10/31 06:07:46;;;;;;;0.10;0.10;;;;;;;;;;5054392;28;20202;-71
2021/10/31 06:10:12;;;;;;;0.10;0.10;;;;;;;;;;5047800;28;20212;-71
2021/10/31 06:12:41;;;;;;;0.77;0.77;;;;;;;;;;5062553;28;20249;-71
2021/10/31 06:15:08;;;;;;;0.10;0.10;;;;;;;;;;5063836;28;20216;-71
2021/10/31 06:17:34;;;;;;;0.10;0.10;;;;;;;;;;5046619;28;20221;-71
2021/10/31 06:20:01;;;;;;;0.43;0.43;;;;;;;;;;5044119;28;20542;-70
2021/10/31 06:22:27;;;;;;;0.10;0.10;;;;;;;;;;5045151;28;20247;-70
2021/10/31 06:24:54;;;;;;;0.10;0.10;;;;;;;;;;5056855;28;20495;-71
2021/10/31 06:27:21;;;;;;;0.10;0.10;;;;;;;;;;5057511;28;20257;-71
2021/10/31 06:29:47;;;;;;;0.10;0.10;;;;;;;;;;5044374;28;20208;-71
2021/10/31 06:32:13;;;;;;;0.10;0.10;;;;;;;;;;5043923;28;20275;-70
2021/10/31 06:34:39;;;;;;;0.10;0.10;;;;;;;;;;5043406;28;20203;-71
2021/10/31 06:37:06;;;;;;;0.10;0.10;;;;;;;;;;5043692;28;20273;-70
2021/10/31 06:39:32;;;;;;;0.10;0.10;;;;;;;;;;5043903;28;20209;-71
2021/10/31 06:41:59;;;;;;;0.10;0.10;;;;;;;;;;5051730;28;20209;-70
2021/10/31 06:44:26;;;;;;;0.10;0.10;;;;;;;;;;5049072;28;20214;-68
2021/10/31 06:46:52;;;;;;;1.93;1.83;;;;;;;;;;5043331;28;20205;-71
2021/10/31 06:49:19;;;;;;;0.10;0.10;;;;;;;;;;5043193;28;20210;-70
2021/10/31 06:51:45;;;;;;;0.10;0.10;;;;;;;;;;5043532;28;20246;-71
2021/10/31 06:54:11;;;;;;;0.10;0.10;;;;;;;;;;5043214;28;20200;-71
2021/10/31 06:56:37;;;;;;;0.10;0.10;;;;;;;;;;5043097;28;20207;-71
2021/10/31 06:59:05;;;;;;;0.50;0.50;;;;;;;;;;5051654;28;20224;-71
2021/10/31 07:01:31;;;;;;;0.10;0.10;;;;;;;;;;5049161;28;20208;-71
2021/10/31 07:03:57;;;;;;;2.10;2.10;;;;;;;;;;5056072;28;20243;-71
2021/10/31 07:06:24;;;;;;;0.10;0.10;;;;;;;;;;5043348;28;20229;-72
2021/10/31 07:08:50;;;;;;;0.10;0.10;;;;;;;;;;5042984;28;20205;-70
2021/10/31 07:11:16;;;;;;;0.53;0.53;;;;;;;;;;5043149;28;20205;-72
2021/10/31 07:13:42;;;;;;;0.10;0.10;;;;;;;;;;5042697;28;20217;-71
2021/10/31 07:16:10;;;;;;;0.10;0.10;;;;;;;;;;5043150;28;20200;-72
2021/10/31 07:18:37;;;;;;;0.10;0.10;;;;;;;;;;5043207;28;20224;-72
2021/10/31 07:21:04;;;;;;;0.47;0.47;;;;;;;;;;5043143;28;20200;-71
2021/10/31 07:23:31;;;;;;;0.20;0.20;;;;;;;;;;5043227;28;20205;-72
2021/10/31 07:25:57;;;;;;;0.10;0.10;;;;;;;;;;5042986;28;20247;-72
2021/10/31 07:28:23;;;;;;;0.10;0.10;;;;;;;;;;5043133;28;20204;-71
2021/10/31 07:30:51;;;;;;;0.10;0.10;;;;;;;;;;5042873;28;20235;-69
2021/10/31 07:33:19;;;;;;;0.10;0.10;;;;;;;;;;5043036;28;20211;-71
2021/10/31 07:35:45;;;;;;;0.10;0.10;;;;;;;;;;5043106;28;20278;-72
2021/10/31 07:38:12;;;;;;;0.10;0.10;;;;;;;;;;5047589;28;20484;-72
2021/10/31 07:40:38;;;;;;;0.10;0.10;;;;;;;;;;5052028;28;20204;-70
2021/10/31 07:43:05;;;;;;;0.10;0.10;;;;;;;;;;5062804;28;20206;-71
2021/10/31 07:45:31;;;;;;;0.10;0.10;;;;;;;;;;5053869;28;20219;-72
2021/10/31 07:47:59;;;;;;;0.10;0.10;;;;;;;;;;5043068;28;20220;-72
2021/10/31 07:50:33;;;;;;;0.10;0.10;;;;;;;;;;5050361;28;20210;-72
2021/10/31 07:53:00;;;;;;;0.10;0.10;;;;;;;;;;5048238;28;20203;-71
2021/10/31 07:55:30;;;;;;;0.10;0.10;;;;;;;;;;5042915;28;20207;-73
2021/10/31 07:57:56;;;;;;;0.00;0.00;;;;;;;;;;5042532;28;20219;-71
2021/10/31 08:00:23;;;;;;;0.47;0.47;;;;;;;;;;5047416;28;20205;-72
2021/10/31 08:02:49;;;;;;;0.10;0.10;;;;;;;;;;5062547;28;20215;-70
2021/10/31 08:05:15;;;;;;;0.10;0.10;;;;;;;;;;5045105;28;20206;-71
2021/10/31 08:07:43;;;;;;;0.10;0.10;;;;;;;;;;5042563;28;20270;-71
2021/10/31 08:10:09;;;;;;;0.10;0.10;;;;;;;;;;5046390;28;20426;-71
2021/10/31 08:12:36;;;;;;;0.10;0.10;;;;;;;;;;5046354;28;20200;-71
2021/10/31 08:15:02;;;;;;;0.10;0.10;;;;;;;;;;5045986;28;20431;-72
2021/10/31 08:17:28;;;;;;;0.10;0.10;;;;;;;;;;5046408;28;20553;-71
2021/10/31 08:19:55;;;;;;;0.10;0.10;;;;;;;;;;5046135;28;20203;-71
2021/10/31 08:22:21;;;;;;;0.10;0.10;;;;;;;;;;5046320;28;20209;-70
2021/10/31 08:24:48;;;;;;;0.00;0.00;;;;;;;;;;5045885;28;20201;-71
2021/10/31 08:27:15;;;;;;;0.10;0.10;;;;;;;;;;5058567;28;20216;-71
2021/10/31 08:29:42;;;;;;;0.03;0.03;;;;;;;;;;5052157;28;20396;-71
2021/10/31 08:32:08;;;;;;;0.20;0.20;;;;;;;;;;5049528;28;20276;-72
2021/10/31 08:34:34;;;;;;;0.00;0.00;;;;;;;;;;5045999;28;20211;-72
2021/10/31 08:37:01;;;;;;;0.75;0.75;;;;;;;;;;5045921;28;20248;-72
2021/10/31 08:39:27;;;;;;;0.32;0.32;;;;;;;;;;5045786;28;20230;-71
2021/10/31 08:41:54;;;;;;;0.00;0.00;;;;;;;;;;5046026;28;20205;-72
2021/10/31 08:44:21;;;;;;;0.10;0.10;;;;;;;;;;5045689;28;20210;-72
2021/10/31 08:46:47;;;;;;;0.10;0.10;;;;;;;;;;5045861;28;20206;-71
2021/10/31 08:49:13;;;;;;;0.10;0.10;;;;;;;;;;5057296;28;20209;-70
2021/10/31 08:51:39;;;;;;;0.10;0.10;;;;;;;;;;5048228;28;20226;-71
2021/10/31 08:54:06;;;;;;;0.00;0.00;;;;;;;;;;5045794;28;20247;-71
2021/10/31 08:56:32;;;;;;;0.10;0.10;;;;;;;;;;5045780;28;20303;-71
2021/10/31 08:58:59;;;;;;;0.63;0.63;;;;;;;;;;5045429;28;20224;-70
2021/10/31 09:01:26;;;;;;;0.10;0.10;;;;;;;;;;5045255;28;20227;-71
2021/10/31 09:03:53;;;;;;;0.10;0.10;;;;;;;;;;5045308;28;20225;-71
2021/10/31 09:06:20;;;;;;;0.00;0.00;;;;;;;;;;5045308;28;20215;-70
2021/10/31 09:08:46;;;;;;;0.00;0.00;;;;;;;;;;5045501;28;20413;-70
2021/10/31 09:11:12;;;;;;;0.10;0.10;;;;;;;;;;5047107;28;20206;-72
2021/10/31 09:13:39;;;;;;;0.10;0.10;;;;;;;;;;5050580;28;20216;-71
2021/10/31 09:16:06;;;;;;;0.05;0.05;;;;;;;;;;5049711;28;20201;-71
2021/10/31 09:18:33;;;;;;;0.00;0.00;;;;;;;;;;5052109;28;20226;-71
2021/10/31 09:20:59;;;;;;;0.10;0.10;;;;;;;;;;5054488;28;20249;-71
2021/10/31 09:23:25;;;;;;;2.60;2.50;;;;;;;;;;5054451;28;20215;-72
2021/10/31 09:25:52;;;;;;;0.10;0.10;;;;;;;;;;5054825;28;20216;-72
2021/10/31 09:28:18;;;;;;;0.00;0.00;;;;;;;;;;5064736;28;20214;-71
2021/10/31 09:30:45;;;;;;;0.00;0.00;;;;;;;;;;5053297;28;20231;-72
2021/10/31 09:33:14;;;;;;;0.10;0.10;;;;;;;;;;5064662;28;20394;-71
2021/10/31 09:35:49;;;;;;;0.00;0.00;;;;;;;;;;5055217;28;20226;-71
2021/10/31 09:38:17;;;;;;;0.13;0.13;;;;;;;;;;5064051;28;20256;-65
2021/10/31 09:40:43;;;;;;;0.00;0.00;;;;;;;;;;5052184;28;20240;-66
2021/10/31 09:43:09;;;;;;;0.10;0.10;;;;;;;;;;5053601;28;20431;-65
2021/10/31 09:45:36;;;;;;;0.10;0.10;;;;;;;;;;5054678;28;20388;-65
2021/10/31 09:48:04;;;;;;;0.00;0.00;;;;;;;;;;5064477;28;20204;-66
2021/10/31 09:50:34;;;;;;;0.00;0.00;;;;;;;;;;5050394;28;20251;-65
2021/10/31 09:53:01;;;;;;;0.00;0.00;;;;;;;;;;5054766;28;20242;-64
2021/10/31 09:55:27;;;;;;;0.00;0.00;;;;;;;;;;5064441;28;20267;-65
2021/10/31 09:57:54;;;;;;;0.00;0.00;;;;;;;;;;5058455;28;20398;-65
2021/10/31 10:00:21;;;;;;;0.10;0.10;;;;;;;;;;5057353;28;20246;-66
2021/10/31 10:03:02;;;;;;;0.00;0.00;;;;;;;;;;5045103;28;20212;-66
2021/10/31 10:05:29;;;;;;;0.00;0.00;;;;;;;;;;5049649;28;20212;-65
2021/10/31 10:08:09;;;;;;;0.03;0.03;;;;;;;;;;5055187;28;20209;-66
2021/10/31 10:10:43;;;;;;;0.10;0.10;;;;;;;;;;5058263;28;20436;-68
2021/10/31 10:13:16;;;;;;;0.10;0.10;;;;;;;;;;5056449;28;20431;-67
2021/10/31 10:15:42;;;;;;;0.10;0.10;;;;;;;;;;5054742;28;20246;-68
2021/10/31 10:18:09;;;;;;;0.00;0.00;;;;;;;;;;5051678;28;20277;-67
2021/10/31 10:20:37;;;;;;;0.00;0.00;;;;;;;;;;5048683;28;20212;-68
2021/10/31 10:23:10;;;;;;;0.10;0.10;;;;;;;;;;5059184;28;20273;-68
2021/10/31 10:25:40;;;;;;;0.00;0.00;;;;;;;;;;5053634;28;20204;-68
2021/10/31 10:28:22;;;;;;;0.00;0.00;;;;;;;;;;5043729;28;20216;-66
2021/10/31 10:30:48;;;;;;;0.00;0.00;;;;;;;;;;5057769;28;20440;-67
2021/10/31 10:33:19;;;;;;;0.10;0.10;;;;;;;;;;5059082;28;20249;-68
2021/10/31 10:35:48;;;;;;;0.10;0.10;;;;;;;;;;5063483;28;20202;-68
2021/10/31 10:38:17;;;;;;;0.00;0.00;;;;;;;;;;5047342;28;20212;-67
2021/10/31 10:40:43;;;;;;;0.10;0.10;;;;;;;;;;5056432;28;20277;-67
2021/10/31 10:43:09;;;;;;;0.00;0.00;;;;;;;;;;5062172;28;20207;-67
2021/10/31 10:45:39;;;;;;;0.00;0.00;;;;;;;;;;5057177;28;20254;-67
2021/10/31 10:48:08;;;;;;;0.00;0.00;;;;;;;;;;5059816;28;20211;-67
2021/10/31 10:50:35;;;;;;;0.00;0.00;;;;;;;;;;5054757;28;20246;-68
2021/10/31 10:53:01;;;;;;;0.00;0.00;;;;;;;;;;5049898;28;20216;-67
2021/10/31 10:55:29;;;;;;;0.10;0.10;;;;;;;;;;5063251;28;20204;-66
2021/10/31 10:57:57;;;;;;;0.00;0.00;;;;;;;;;;5063018;28;20204;-67
2021/10/31 11:00:24;;;;;;;0.03;0.03;;;;;;;;;;5054407;28;20224;-68
2021/10/31 11:02:59;;;;;;;0.00;0.00;;;;;;;;;;5057044;28;20531;-69
2021/10/31 11:05:28;;;;;;;0.00;0.00;;;;;;;;;;5057466;28;20207;-68
2021/10/31 11:07:54;;;;;;;0.00;0.00;;;;;;;;;;5053604;28;20500;-68
2021/10/31 11:10:22;;;;;;;0.00;0.00;;;;;;;;;;5051824;28;20208;-68
2021/10/31 11:12:51;;;;;;;0.00;0.00;;;;;;;;;;5048517;28;20243;-67
2021/10/31 11:15:18;;;;;;;0.00;0.00;;;;;;;;;;5053898;28;20242;-68
2021/10/31 11:17:45;;;;;;;0.00;0.00;;;;;;;;;;5045734;28;20204;-69
2021/10/31 11:20:13;;;;;;;0.10;0.10;;;;;;;;;;5046105;28;20221;-68
2021/10/31 11:22:41;;;;;;;0.00;0.00;;;;;;;;;;5044915;28;20209;-68
2021/10/31 11:25:10;;;;;;;0.00;0.00;;;;;;;;;;5048197;28;20208;-66
2021/10/31 11:27:37;;;;;;;0.10;0.10;;;;;;;;;;5050961;28;20212;-67
2021/10/31 11:30:06;;;;;;;0.20;0.20;;;;;;;;;;5048524;28;20201;-65
2021/10/31 11:32:32;;;;;;;0.60;0.60;;;;;;;;;;5050780;28;20298;-68
2021/10/31 11:34:59;;;;;;;0.30;0.30;;;;;;;;;;5051639;28;20196;-68
2021/10/31 11:37:28;;;;;;;0.00;0.00;;;;;;;;;;5046182;28;20262;-67
2021/10/31 11:39:56;;;;;;;0.00;0.00;;;;;;;;;;5045249;28;20314;-67
2021/10/31 11:42:23;;;;;;;0.03;0.03;;;;;;;;;;5048363;28;20211;-67
2021/10/31 11:45:00;;;;;;;1.13;1.13;;;;;;;;;;5057723;28;20423;-67
2021/10/31 11:47:30;;;;;;;0.00;0.00;;;;;;;;;;5059999;28;20391;-67
2021/10/31 11:50:00;;;;;;;0.00;0.00;;;;;;;;;;5054323;28;20212;-67
2021/10/31 11:52:41;;;;;;;0.00;0.00;;;;;;;;;;5062746;28;20277;-67
2021/10/31 11:55:22;;;;;;;0.00;0.00;;;;;;;;;;5052122;28;20207;-67
2021/10/31 11:57:59;;;;;;;0.10;0.10;;;;;;;;;;5040984;28;20209;-66
2021/10/31 12:00:26;;;;;;;0.20;0.20;;;;;;;;;;5058583;28;20251;-65
2021/10/31 12:02:57;;;;;;;0.10;0.10;;;;;;;;;;5048332;28;20216;-66
2021/10/31 12:05:36;;;;;;;0.00;0.00;;;;;;;;;;5053816;28;20230;-66
2021/10/31 12:08:02;;;;;;;0.10;0.10;;;;;;;;;;5055544;28;20212;-66
2021/10/31 12:10:29;;;;;;;0.10;0.10;;;;;;;;;;5063217;28;20296;-65
2021/10/31 12:13:09;;;;;;;0.08;0.08;;;;;;;;;;5054459;28;20423;-67
2021/10/31 12:15:35;;;;;;;0.10;0.10;;;;;;;;;;5053242;28;20212;-67
2021/10/31 12:18:05;;;;;;;0.00;0.00;;;;;;;;;;5053483;28;20273;-66
2021/10/31 12:20:51;;;;;;;0.00;0.00;;;;;;;;;;5053527;28;20234;-68
2021/10/31 12:23:18;;;;;;;0.00;0.00;;;;;;;;;;5048726;28;20247;-68
2021/10/31 12:25:45;;;;;;;0.10;0.10;;;;;;;;;;5047542;28;20239;-67
2021/10/31 12:28:36;;;;;;;0.00;0.00;;;;;;;;;;5049544;28;20246;-67
2021/10/31 12:31:17;;;;;;;0.57;0.55;;;;;;;;;;5065657;28;20234;-67
2021/10/31 12:33:58;;;;;;;0.10;0.10;;;;;;;;;;5055879;28;20530;-65
2021/10/31 12:36:32;;;;;;;0.10;0.10;;;;;;;;;;5046897;28;20331;-65
2021/10/31 12:38:58;;;;;;;0.10;0.10;;;;;;;;;;5055000;28;20236;-67
2021/10/31 12:41:28;;;;;;;0.00;0.00;;;;;;;;;;5058390;28;20201;-67
2021/10/31 12:43:57;;;;;;;0.05;0.05;;;;;;;;;;5065367;28;20235;-67
2021/10/31 12:46:26;;;;;;;0.10;0.10;;;;;;;;;;5065419;28;20204;-67
2021/10/31 12:48:53;;;;;;;0.50;0.50;;;;;;;;;;5052222;28;20238;-67
2021/10/31 12:51:35;;;;;;;0.10;0.10;;;;;;;;;;5051722;28;20495;-67
2021/10/31 12:54:03;;;;;;;0.00;0.00;;;;;;;;;;5060487;28;20247;-66
2021/10/31 12:56:29;;;;;;;0.10;0.10;;;;;;;;;;5057027;28;20429;-67
2021/10/31 12:59:02;;;;;;;0.00;0.00;;;;;;;;;;5064437;28;20507;-68
2021/10/31 13:01:28;;;;;;;0.10;0.10;;;;;;;;;;5050139;28;20210;-67
2021/10/31 13:04:00;;;;;;;0.10;0.10;;;;;;;;;;5063077;28;20206;-66
2021/10/31 13:06:27;;;;;;;0.10;0.10;;;;;;;;;;5049488;28;20204;-68
2021/10/31 13:08:55;;;;;;;0.10;0.10;;;;;;;;;;5063646;28;20401;-67
2021/10/31 13:11:31;;;;;;;0.05;0.05;;;;;;;;;;5045374;28;20247;-67
2021/10/31 13:13:57;;;;;;;0.10;0.10;;;;;;;;;;5048776;28;20414;-67
2021/10/31 13:16:23;;;;;;;0.00;0.00;;;;;;;;;;5053584;28;20231;-68
2021/10/31 13:18:49;;;;;;;0.10;0.10;;;;;;;;;;5065195;28;20207;-67
2021/10/31 13:21:20;;;;;;;0.00;0.00;;;;;;;;;;5060771;28;20196;-68
2021/10/31 13:23:46;;;;;;;0.30;0.30;;;;;;;;;;5058470;28;20211;-67
2021/10/31 13:26:13;;;;;;;0.10;0.10;;;;;;;;;;5060913;28;20503;-68
2021/10/31 13:28:41;;;;;;;0.10;0.10;;;;;;;;;;5060984;28;20393;-68
2021/10/31 13:31:09;;;;;;;0.00;0.00;;;;;;;;;;5057360;28;20315;-68
2021/10/31 13:33:37;;;;;;;0.20;0.20;;;;;;;;;;5064910;28;20231;-67
2021/10/31 13:36:04;;;;;;;0.03;0.03;;;;;;;;;;5064478;28;20243;-68
2021/10/31 13:38:44;;;;;;;0.08;0.08;;;;;;;;;;5060931;28;20205;-68
2021/10/31 13:41:10;;;;;;;0.20;0.20;;;;;;;;;;5056836;28;20214;-68
2021/10/31 13:43:36;;;;;;;0.32;0.32;;;;;;;;;;5055325;28;20201;-68
2021/10/31 13:46:04;;;;;;;0.10;0.10;;;;;;;;;;5051493;28;20247;-67
2021/10/31 13:48:33;;;;;;;0.10;0.10;;;;;;;;;;5064496;28;20208;-69
2021/10/31 13:51:00;;;;;;;0.10;0.10;;;;;;;;;;5064316;28;20212;-68
2021/10/31 13:53:27;;;;;;;0.10;0.10;;;;;;;;;;5050439;28;20220;-66
2021/10/31 13:55:53;;;;;;;0.65;0.65;;;;;;;;;;5058243;28;20366;-66
2021/10/31 13:58:21;;;;;;;0.10;0.10;;;;;;;;;;5052345;28;20423;-66
2021/10/31 14:00:48;;;;;;;0.43;0.43;;;;;;;;;;5052315;28;20259;-67
2021/10/31 14:03:21;;;;;;;0.00;0.00;;;;;;;;;;5063905;28;20213;-67
2021/10/31 14:05:48;;;;;;;0.20;0.20;;;;;;;;;;5043964;28;20245;-66
2021/10/31 14:08:14;;;;;;;0.00;0.00;;;;;;;;;;5044291;28;20209;-65
2021/10/31 14:10:43;;;;;;;0.10;0.10;;;;;;;;;;5061194;28;20214;-65
2021/10/31 14:13:10;;;;;;;0.10;0.10;;;;;;;;;;5051050;28;20335;-65
2021/10/31 14:15:37;;;;;;;0.10;0.10;;;;;;;;;;5051108;28;20450;-64
2021/10/31 14:18:04;;;;;;;0.10;0.10;;;;;;;;;;5058038;28;20256;-66
2021/10/31 14:20:33;;;;;;;0.10;0.10;;;;;;;;;;5048009;28;20230;-65
2021/10/31 14:22:59;;;;;;;0.10;0.10;;;;;;;;;;5054078;28;20256;-66
2021/10/31 14:25:27;;;;;;;2.92;0.85;;;;;;;;;;5062984;28;20239;-65
2021/10/31 14:28:05;;;;;;;0.65;0.65;;;;;;;;;;5056845;28;20214;-65
2021/10/31 14:30:32;;;;;;;0.00;0.00;;;;;;;;;;5048782;28;20202;-65
2021/10/31 14:33:00;;;;;;;0.10;0.10;;;;;;;;;;5054881;28;20205;-64
2021/10/31 14:35:38;;;;;;;0.00;0.00;;;;;;;;;;5063949;28;20210;-66
2021/10/31 14:38:05;;;;;;;0.10;0.10;;;;;;;;;;5063585;28;20288;-66
2021/10/31 14:40:32;;;;;;;0.10;0.10;;;;;;;;;;5063673;28;20378;-65
2021/10/31 14:43:21;;;;;;;0.10;0.10;;;;;;;;;;5062055;28;20402;-64
2021/10/31 14:45:51;;;;;;;0.10;0.10;;;;;;;;;;5062774;28;20197;-65
2021/10/31 14:48:25;;;;;;;0.10;0.10;;;;;;;;;;5048604;28;20370;-65